sensor_id;sensor_type;location;lat;lon;timestamp;P1;durP1;ratioP1;P2;durP2;ratioP2
55467;SDS011;41332;42.702;23.200;2022-12-18T00:01:36;3.20;;;2.92;;
55467;SDS011;41332;42.702;23.200;2022-12-18T00:04:03;4.38;;;3.97;;
55467;SDS011;41332;42.702;23.200;2022-12-18T00:06:30;5.05;;;3.42;;
55467;SDS011;41332;42.702;23.200;2022-12-18T00:08:58;4.18;;;3.40;;
55467;SDS011;41332;42.702;23.200;2022-12-18T00:11:26;5.00;;;3.60;;
55467;SDS011;41332;42.702;23.200;2022-12-18T00:13:53;3.53;;;3.20;;
55467;SDS011;41332;42.702;23.200;2022-12-18T00:16:21;4.82;;;3.05;;
55467;SDS011;41332;42.702;23.200;2022-12-18T00:18:49;3.67;;;3.28;;
55467;SDS011;41332;42.702;23.200;2022-12-18T00:23:42;7.47;;;3.35;;
55467;SDS011;41332;42.702;23.200;2022-12-18T00:26:18;5.30;;;3.25;;
55467;SDS011;41332;42.702;23.200;2022-12-18T00:28:45;4.30;;;3.88;;
55467;SDS011;41332;42.702;23.200;2022-12-18T00:31:12;4.47;;;4.00;;
55467;SDS011;41332;42.702;23.200;2022-12-18T00:33:40;4.20;;;3.80;;
55467;SDS011;41332;42.702;23.200;2022-12-18T00:36:07;4.57;;;3.50;;
55467;SDS011;41332;42.702;23.200;2022-12-18T00:38:43;6.07;;;3.75;;
55467;SDS011;41332;42.702;23.200;2022-12-18T00:41:09;3.95;;;3.58;;
55467;SDS011;41332;42.702;23.200;2022-12-18T00:43:36;3.87;;;3.50;;
55467;SDS011;41332;42.702;23.200;2022-12-18T00:46:02;5.50;;;4.13;;
55467;SDS011;41332;42.702;23.200;2022-12-18T00:48:28;4.85;;;3.80;;
55467;SDS011;41332;42.702;23.200;2022-12-18T00:50:53;3.90;;;3.60;;
55467;SDS011;41332;42.702;23.200;2022-12-18T00:53:18;4.03;;;3.63;;
55467;SDS011;41332;42.702;23.200;2022-12-18T00:55:44;4.75;;;3.72;;
55467;SDS011;41332;42.702;23.200;2022-12-18T00:58:10;5.47;;;4.13;;
55467;SDS011;41332;42.702;23.200;2022-12-18T01:00:37;4.40;;;4.00;;
55467;SDS011;41332;42.702;23.200;2022-12-18T01:03:03;5.15;;;4.40;;
55467;SDS011;41332;42.702;23.200;2022-12-18T01:05:29;5.47;;;4.55;;
55467;SDS011;41332;42.702;23.200;2022-12-18T01:07:55;5.13;;;4.13;;
55467;SDS011;41332;42.702;23.200;2022-12-18T01:10:21;4.65;;;4.00;;
55467;SDS011;41332;42.702;23.200;2022-12-18T01:12:47;5.90;;;4.38;;
55467;SDS011;41332;42.702;23.200;2022-12-18T01:15:13;8.68;;;5.45;;
55467;SDS011;41332;42.702;23.200;2022-12-18T01:17:39;5.15;;;4.65;;
55467;SDS011;41332;42.702;23.200;2022-12-18T01:20:05;8.93;;;5.20;;
55467;SDS011;41332;42.702;23.200;2022-12-18T01:22:32;6.38;;;4.22;;
55467;SDS011;41332;42.702;23.200;2022-12-18T01:24:58;5.57;;;4.07;;
55467;SDS011;41332;42.702;23.200;2022-12-18T01:27:23;6.97;;;5.32;;
55467;SDS011;41332;42.702;23.200;2022-12-18T01:29:49;8.27;;;5.28;;
55467;SDS011;41332;42.702;23.200;2022-12-18T01:32:14;7.75;;;4.78;;
55467;SDS011;41332;42.702;23.200;2022-12-18T01:34:40;6.00;;;4.05;;
55467;SDS011;41332;42.702;23.200;2022-12-18T01:37:05;8.25;;;6.00;;
55467;SDS011;41332;42.702;23.200;2022-12-18T01:39:31;8.73;;;5.38;;
55467;SDS011;41332;42.702;23.200;2022-12-18T01:41:58;6.90;;;5.22;;
55467;SDS011;41332;42.702;23.200;2022-12-18T01:47:21;6.05;;;4.32;;
55467;SDS011;41332;42.702;23.200;2022-12-18T01:49:47;4.53;;;4.13;;
55467;SDS011;41332;42.702;23.200;2022-12-18T01:52:13;6.85;;;4.97;;
55467;SDS011;41332;42.702;23.200;2022-12-18T01:54:39;7.18;;;5.43;;
55467;SDS011;41332;42.702;23.200;2022-12-18T01:57:05;5.95;;;4.90;;
55467;SDS011;41332;42.702;23.200;2022-12-18T01:59:31;5.45;;;5.05;;
55467;SDS011;41332;42.702;23.200;2022-12-18T02:01:59;5.50;;;4.78;;
55467;SDS011;41332;42.702;23.200;2022-12-18T02:04:25;5.25;;;4.15;;
55467;SDS011;41332;42.702;23.200;2022-12-18T02:06:54;8.15;;;4.97;;
55467;SDS011;41332;42.702;23.200;2022-12-18T02:09:28;7.15;;;4.53;;
55467;SDS011;41332;42.702;23.200;2022-12-18T02:14:55;6.65;;;4.72;;
55467;SDS011;41332;42.702;23.200;2022-12-18T02:23:01;7.05;;;4.55;;
55467;SDS011;41332;42.702;23.200;2022-12-18T02:28:20;5.00;;;3.90;;
55467;SDS011;41332;42.702;23.200;2022-12-18T02:30:50;6.05;;;4.65;;
55467;SDS011;41332;42.702;23.200;2022-12-18T02:33:18;5.43;;;3.90;;
55467;SDS011;41332;42.702;23.200;2022-12-18T02:35:45;4.68;;;3.63;;
55467;SDS011;41332;42.702;23.200;2022-12-18T02:38:12;5.03;;;4.30;;
55467;SDS011;41332;42.702;23.200;2022-12-18T02:40:39;4.40;;;3.85;;
55467;SDS011;41332;42.702;23.200;2022-12-18T02:43:10;4.68;;;3.92;;
55467;SDS011;41332;42.702;23.200;2022-12-18T02:45:49;4.30;;;3.90;;
55467;SDS011;41332;42.702;23.200;2022-12-18T02:48:29;4.85;;;4.28;;
55467;SDS011;41332;42.702;23.200;2022-12-18T02:53:33;5.55;;;4.03;;
55467;SDS011;41332;42.702;23.200;2022-12-18T02:56:09;6.05;;;3.80;;
55467;SDS011;41332;42.702;23.200;2022-12-18T02:58:49;5.55;;;4.00;;
55467;SDS011;41332;42.702;23.200;2022-12-18T03:04:25;4.13;;;3.72;;
55467;SDS011;41332;42.702;23.200;2022-12-18T03:07:01;8.23;;;4.15;;
55467;SDS011;41332;42.702;23.200;2022-12-18T03:09:35;7.40;;;4.90;;
55467;SDS011;41332;42.702;23.200;2022-12-18T03:12:12;6.72;;;4.72;;
55467;SDS011;41332;42.702;23.200;2022-12-18T03:14:52;3.97;;;3.60;;
55467;SDS011;41332;42.702;23.200;2022-12-18T03:17:24;8.23;;;4.60;;
55467;SDS011;41332;42.702;23.200;2022-12-18T03:22:18;4.20;;;3.47;;
55467;SDS011;41332;42.702;23.200;2022-12-18T03:24:44;8.25;;;4.68;;
55467;SDS011;41332;42.702;23.200;2022-12-18T03:27:12;6.57;;;4.22;;
55467;SDS011;41332;42.702;23.200;2022-12-18T03:29:43;4.47;;;4.03;;
55467;SDS011;41332;42.702;23.200;2022-12-18T03:32:24;6.55;;;4.38;;
55467;SDS011;41332;42.702;23.200;2022-12-18T03:34:53;5.78;;;3.90;;
55467;SDS011;41332;42.702;23.200;2022-12-18T03:37:22;6.05;;;3.95;;
55467;SDS011;41332;42.702;23.200;2022-12-18T03:39:48;7.38;;;3.35;;
55467;SDS011;41332;42.702;23.200;2022-12-18T03:42:15;4.95;;;4.10;;
55467;SDS011;41332;42.702;23.200;2022-12-18T03:44:58;5.60;;;3.50;;
55467;SDS011;41332;42.702;23.200;2022-12-18T03:56:14;3.85;;;2.70;;
55467;SDS011;41332;42.702;23.200;2022-12-18T03:58:41;5.97;;;3.63;;
55467;SDS011;41332;42.702;23.200;2022-12-18T04:01:08;8.75;;;4.85;;
55467;SDS011;41332;42.702;23.200;2022-12-18T04:03:38;6.50;;;4.60;;
55467;SDS011;41332;42.702;23.200;2022-12-18T04:06:04;9.32;;;4.60;;
55467;SDS011;41332;42.702;23.200;2022-12-18T04:08:31;8.18;;;4.78;;
55467;SDS011;41332;42.702;23.200;2022-12-18T04:10:59;7.18;;;4.78;;
55467;SDS011;41332;42.702;23.200;2022-12-18T04:13:29;5.07;;;4.57;;
55467;SDS011;41332;42.702;23.200;2022-12-18T04:15:57;8.20;;;5.88;;
55467;SDS011;41332;42.702;23.200;2022-12-18T04:18:23;8.07;;;5.32;;
55467;SDS011;41332;42.702;23.200;2022-12-18T04:20:48;6.65;;;4.75;;
55467;SDS011;41332;42.702;23.200;2022-12-18T04:23:13;4.93;;;4.18;;
55467;SDS011;41332;42.702;23.200;2022-12-18T04:25:39;5.65;;;4.70;;
55467;SDS011;41332;42.702;23.200;2022-12-18T04:28:04;6.47;;;4.22;;
55467;SDS011;41332;42.702;23.200;2022-12-18T04:30:30;5.18;;;4.13;;
55467;SDS011;41332;42.702;23.200;2022-12-18T04:32:55;10.60;;;5.85;;
55467;SDS011;41332;42.702;23.200;2022-12-18T04:35:20;7.40;;;5.78;;
55467;SDS011;41332;42.702;23.200;2022-12-18T04:37:46;5.70;;;4.65;;
55467;SDS011;41332;42.702;23.200;2022-12-18T04:40:11;10.55;;;5.50;;
55467;SDS011;41332;42.702;23.200;2022-12-18T04:42:39;11.32;;;6.18;;
55467;SDS011;41332;42.702;23.200;2022-12-18T04:45:05;10.73;;;6.22;;
55467;SDS011;41332;42.702;23.200;2022-12-18T04:47:31;10.40;;;6.00;;
55467;SDS011;41332;42.702;23.200;2022-12-18T04:49:57;10.93;;;5.28;;
55467;SDS011;41332;42.702;23.200;2022-12-18T04:52:22;15.80;;;6.45;;
55467;SDS011;41332;42.702;23.200;2022-12-18T04:54:47;9.55;;;5.63;;
55467;SDS011;41332;42.702;23.200;2022-12-18T04:57:13;9.15;;;6.80;;
55467;SDS011;41332;42.702;23.200;2022-12-18T04:59:38;11.77;;;7.15;;
55467;SDS011;41332;42.702;23.200;2022-12-18T05:02:04;10.27;;;6.72;;
55467;SDS011;41332;42.702;23.200;2022-12-18T05:04:29;12.27;;;6.13;;
55467;SDS011;41332;42.702;23.200;2022-12-18T05:06:55;10.80;;;6.63;;
55467;SDS011;41332;42.702;23.200;2022-12-18T05:09:20;13.35;;;6.88;;
55467;SDS011;41332;42.702;23.200;2022-12-18T05:11:45;10.57;;;6.78;;
55467;SDS011;41332;42.702;23.200;2022-12-18T05:14:11;9.98;;;7.38;;
55467;SDS011;41332;42.702;23.200;2022-12-18T05:16:37;13.07;;;7.57;;
55467;SDS011;41332;42.702;23.200;2022-12-18T05:19:02;10.68;;;7.60;;
55467;SDS011;41332;42.702;23.200;2022-12-18T05:21:28;13.10;;;7.28;;
55467;SDS011;41332;42.702;23.200;2022-12-18T05:23:53;15.57;;;6.07;;
55467;SDS011;41332;42.702;23.200;2022-12-18T05:26:19;9.95;;;6.22;;
55467;SDS011;41332;42.702;23.200;2022-12-18T05:28:44;11.52;;;7.25;;
55467;SDS011;41332;42.702;23.200;2022-12-18T05:31:11;11.30;;;6.28;;
55467;SDS011;41332;42.702;23.200;2022-12-18T05:33:36;12.52;;;6.40;;
55467;SDS011;41332;42.702;23.200;2022-12-18T05:36:03;11.38;;;7.60;;
55467;SDS011;41332;42.702;23.200;2022-12-18T05:38:30;13.25;;;8.25;;
55467;SDS011;41332;42.702;23.200;2022-12-18T05:40:57;12.23;;;7.32;;
55467;SDS011;41332;42.702;23.200;2022-12-18T05:43:23;8.35;;;5.80;;
55467;SDS011;41332;42.702;23.200;2022-12-18T05:45:50;15.07;;;7.45;;
55467;SDS011;41332;42.702;23.200;2022-12-18T05:48:16;13.00;;;7.10;;
55467;SDS011;41332;42.702;23.200;2022-12-18T05:50:46;14.52;;;7.85;;
55467;SDS011;41332;42.702;23.200;2022-12-18T05:53:16;15.02;;;7.30;;
55467;SDS011;41332;42.702;23.200;2022-12-18T05:55:44;12.15;;;6.63;;
55467;SDS011;41332;42.702;23.200;2022-12-18T05:58:10;17.08;;;7.57;;
55467;SDS011;41332;42.702;23.200;2022-12-18T06:00:37;13.40;;;7.65;;
55467;SDS011;41332;42.702;23.200;2022-12-18T06:03:06;13.85;;;6.85;;
55467;SDS011;41332;42.702;23.200;2022-12-18T06:05:39;10.13;;;6.35;;
55467;SDS011;41332;42.702;23.200;2022-12-18T06:08:07;13.57;;;7.03;;
55467;SDS011;41332;42.702;23.200;2022-12-18T06:10:33;12.10;;;7.22;;
55467;SDS011;41332;42.702;23.200;2022-12-18T06:12:59;11.50;;;7.00;;
55467;SDS011;41332;42.702;23.200;2022-12-18T06:15:25;13.85;;;7.90;;
55467;SDS011;41332;42.702;23.200;2022-12-18T06:17:51;11.90;;;7.53;;
55467;SDS011;41332;42.702;23.200;2022-12-18T06:20:17;13.57;;;7.00;;
55467;SDS011;41332;42.702;23.200;2022-12-18T06:22:42;13.55;;;8.27;;
55467;SDS011;41332;42.702;23.200;2022-12-18T06:25:08;18.58;;;8.27;;
55467;SDS011;41332;42.702;23.200;2022-12-18T06:27:33;17.33;;;8.68;;
55467;SDS011;41332;42.702;23.200;2022-12-18T06:29:59;15.40;;;8.20;;
55467;SDS011;41332;42.702;23.200;2022-12-18T06:32:25;15.10;;;8.35;;
55467;SDS011;41332;42.702;23.200;2022-12-18T06:34:51;19.02;;;8.02;;
55467;SDS011;41332;42.702;23.200;2022-12-18T06:37:17;15.43;;;7.80;;
55467;SDS011;41332;42.702;23.200;2022-12-18T06:39:43;12.90;;;6.90;;
55467;SDS011;41332;42.702;23.200;2022-12-18T06:42:08;12.23;;;6.63;;
55467;SDS011;41332;42.702;23.200;2022-12-18T06:44:34;10.35;;;6.50;;
55467;SDS011;41332;42.702;23.200;2022-12-18T06:46:59;11.55;;;6.45;;
55467;SDS011;41332;42.702;23.200;2022-12-18T06:49:25;17.95;;;7.53;;
55467;SDS011;41332;42.702;23.200;2022-12-18T06:51:51;10.85;;;7.43;;
55467;SDS011;41332;42.702;23.200;2022-12-18T06:54:17;16.58;;;8.38;;
55467;SDS011;41332;42.702;23.200;2022-12-18T06:56:44;14.55;;;8.25;;
55467;SDS011;41332;42.702;23.200;2022-12-18T06:59:10;10.63;;;6.75;;
55467;SDS011;41332;42.702;23.200;2022-12-18T07:01:35;16.20;;;6.20;;
55467;SDS011;41332;42.702;23.200;2022-12-18T07:04:01;15.38;;;7.63;;
55467;SDS011;41332;42.702;23.200;2022-12-18T07:06:26;13.10;;;7.53;;
55467;SDS011;41332;42.702;23.200;2022-12-18T07:08:52;13.02;;;7.55;;
55467;SDS011;41332;42.702;23.200;2022-12-18T07:11:19;13.43;;;7.87;;
55467;SDS011;41332;42.702;23.200;2022-12-18T07:13:44;11.43;;;8.95;;
55467;SDS011;41332;42.702;23.200;2022-12-18T07:16:15;14.13;;;7.97;;
55467;SDS011;41332;42.702;23.200;2022-12-18T07:18:44;15.77;;;9.30;;
55467;SDS011;41332;42.702;23.200;2022-12-18T07:21:12;14.60;;;8.27;;
55467;SDS011;41332;42.702;23.200;2022-12-18T07:23:39;17.40;;;9.88;;
55467;SDS011;41332;42.702;23.200;2022-12-18T07:26:06;12.95;;;8.88;;
55467;SDS011;41332;42.702;23.200;2022-12-18T07:28:33;19.52;;;8.68;;
55467;SDS011;41332;42.702;23.200;2022-12-18T07:31:07;14.38;;;7.82;;
55467;SDS011;41332;42.702;23.200;2022-12-18T07:33:37;16.65;;;8.70;;
55467;SDS011;41332;42.702;23.200;2022-12-18T07:36:03;16.30;;;9.48;;
55467;SDS011;41332;42.702;23.200;2022-12-18T07:38:30;16.13;;;8.65;;
55467;SDS011;41332;42.702;23.200;2022-12-18T07:41:01;15.13;;;8.38;;
55467;SDS011;41332;42.702;23.200;2022-12-18T07:43:27;13.65;;;7.20;;
55467;SDS011;41332;42.702;23.200;2022-12-18T07:45:53;15.60;;;9.27;;
55467;SDS011;41332;42.702;23.200;2022-12-18T07:48:18;18.63;;;9.70;;
55467;SDS011;41332;42.702;23.200;2022-12-18T07:50:47;19.30;;;9.73;;
55467;SDS011;41332;42.702;23.200;2022-12-18T07:53:13;15.65;;;8.43;;
55467;SDS011;41332;42.702;23.200;2022-12-18T07:55:39;18.60;;;10.63;;
55467;SDS011;41332;42.702;23.200;2022-12-18T07:58:06;14.35;;;9.00;;
55467;SDS011;41332;42.702;23.200;2022-12-18T08:00:32;17.75;;;8.75;;
55467;SDS011;41332;42.702;23.200;2022-12-18T08:02:58;17.75;;;9.15;;
55467;SDS011;41332;42.702;23.200;2022-12-18T08:05:23;18.48;;;9.32;;
55467;SDS011;41332;42.702;23.200;2022-12-18T08:07:49;15.70;;;9.63;;
55467;SDS011;41332;42.702;23.200;2022-12-18T08:10:14;16.65;;;9.13;;
55467;SDS011;41332;42.702;23.200;2022-12-18T08:12:40;18.02;;;9.93;;
55467;SDS011;41332;42.702;23.200;2022-12-18T08:15:06;25.10;;;12.82;;
55467;SDS011;41332;42.702;23.200;2022-12-18T08:17:32;27.67;;;12.50;;
55467;SDS011;41332;42.702;23.200;2022-12-18T08:19:57;24.33;;;11.52;;
55467;SDS011;41332;42.702;23.200;2022-12-18T08:22:23;22.20;;;11.13;;
55467;SDS011;41332;42.702;23.200;2022-12-18T08:24:48;19.88;;;11.65;;
55467;SDS011;41332;42.702;23.200;2022-12-18T08:27:14;24.77;;;11.27;;
55467;SDS011;41332;42.702;23.200;2022-12-18T08:29:39;21.52;;;10.05;;
55467;SDS011;41332;42.702;23.200;2022-12-18T08:32:04;27.38;;;12.80;;
55467;SDS011;41332;42.702;23.200;2022-12-18T08:34:30;29.73;;;13.43;;
55467;SDS011;41332;42.702;23.200;2022-12-18T08:36:55;19.95;;;9.98;;
55467;SDS011;41332;42.702;23.200;2022-12-18T08:39:21;19.95;;;10.60;;
55467;SDS011;41332;42.702;23.200;2022-12-18T08:41:46;38.45;;;19.48;;
55467;SDS011;41332;42.702;23.200;2022-12-18T08:44:31;27.00;;;12.18;;
55467;SDS011;41332;42.702;23.200;2022-12-18T08:47:03;24.08;;;14.00;;
55467;SDS011;41332;42.702;23.200;2022-12-18T08:49:29;26.35;;;13.85;;
55467;SDS011;41332;42.702;23.200;2022-12-18T08:51:55;21.63;;;11.55;;
55467;SDS011;41332;42.702;23.200;2022-12-18T08:54:22;19.23;;;8.93;;
55467;SDS011;41332;42.702;23.200;2022-12-18T08:56:48;24.75;;;10.35;;
55467;SDS011;41332;42.702;23.200;2022-12-18T08:59:17;21.05;;;10.20;;
55467;SDS011;41332;42.702;23.200;2022-12-18T09:01:44;17.98;;;10.30;;
55467;SDS011;41332;42.702;23.200;2022-12-18T09:04:10;29.50;;;12.40;;
55467;SDS011;41332;42.702;23.200;2022-12-18T09:06:36;35.17;;;15.35;;
55467;SDS011;41332;42.702;23.200;2022-12-18T09:09:03;23.50;;;11.40;;
55467;SDS011;41332;42.702;23.200;2022-12-18T09:11:29;32.38;;;13.50;;
55467;SDS011;41332;42.702;23.200;2022-12-18T09:13:56;22.07;;;10.43;;
55467;SDS011;41332;42.702;23.200;2022-12-18T09:16:24;18.63;;;10.02;;
55467;SDS011;41332;42.702;23.200;2022-12-18T09:18:50;20.50;;;10.75;;
55467;SDS011;41332;42.702;23.200;2022-12-18T09:21:17;14.20;;;7.85;;
55467;SDS011;41332;42.702;23.200;2022-12-18T09:23:45;13.48;;;8.13;;
55467;SDS011;41332;42.702;23.200;2022-12-18T09:26:15;21.40;;;9.63;;
55467;SDS011;41332;42.702;23.200;2022-12-18T09:28:40;16.67;;;10.10;;
55467;SDS011;41332;42.702;23.200;2022-12-18T09:31:06;15.43;;;8.45;;
55467;SDS011;41332;42.702;23.200;2022-12-18T09:33:33;19.90;;;10.85;;
55467;SDS011;41332;42.702;23.200;2022-12-18T09:36:01;23.63;;;11.53;;
55467;SDS011;41332;42.702;23.200;2022-12-18T09:38:30;24.05;;;13.15;;
55467;SDS011;41332;42.702;23.200;2022-12-18T09:40:57;23.75;;;10.10;;
55467;SDS011;41332;42.702;23.200;2022-12-18T09:43:47;15.60;;;7.88;;
55467;SDS011;41332;42.702;23.200;2022-12-18T09:46:17;12.63;;;8.07;;
55467;SDS011;41332;42.702;23.200;2022-12-18T09:48:50;14.02;;;7.45;;
55467;SDS011;41332;42.702;23.200;2022-12-18T09:51:21;18.65;;;9.63;;
55467;SDS011;41332;42.702;23.200;2022-12-18T09:54:03;17.35;;;9.15;;
55467;SDS011;41332;42.702;23.200;2022-12-18T09:56:34;15.43;;;8.85;;
55467;SDS011;41332;42.702;23.200;2022-12-18T09:59:04;17.23;;;9.57;;
55467;SDS011;41332;42.702;23.200;2022-12-18T10:01:30;15.27;;;8.30;;
55467;SDS011;41332;42.702;23.200;2022-12-18T10:03:57;18.45;;;9.43;;
55467;SDS011;41332;42.702;23.200;2022-12-18T10:19:50;18.08;;;8.80;;
55467;SDS011;41332;42.702;23.200;2022-12-18T10:28:10;18.10;;;9.60;;
55467;SDS011;41332;42.702;23.200;2022-12-18T10:30:38;19.33;;;8.65;;
55467;SDS011;41332;42.702;23.200;2022-12-18T10:33:04;15.90;;;8.52;;
55467;SDS011;41332;42.702;23.200;2022-12-18T10:35:30;15.68;;;9.43;;
55467;SDS011;41332;42.702;23.200;2022-12-18T10:40:30;19.58;;;8.05;;
55467;SDS011;41332;42.702;23.200;2022-12-18T10:43:12;16.67;;;8.55;;
55467;SDS011;41332;42.702;23.200;2022-12-18T10:45:38;19.63;;;9.25;;
55467;SDS011;41332;42.702;23.200;2022-12-18T10:48:04;18.48;;;10.32;;
55467;SDS011;41332;42.702;23.200;2022-12-18T10:50:42;14.47;;;10.03;;
55467;SDS011;41332;42.702;23.200;2022-12-18T10:53:13;16.58;;;8.25;;
55467;SDS011;41332;42.702;23.200;2022-12-18T10:55:47;18.05;;;8.13;;
55467;SDS011;41332;42.702;23.200;2022-12-18T10:58:18;16.67;;;8.13;;
55467;SDS011;41332;42.702;23.200;2022-12-18T11:03:43;17.70;;;9.55;;
55467;SDS011;41332;42.702;23.200;2022-12-18T11:06:15;14.45;;;8.55;;
55467;SDS011;41332;42.702;23.200;2022-12-18T11:08:43;17.52;;;7.85;;
55467;SDS011;41332;42.702;23.200;2022-12-18T11:11:22;17.33;;;9.15;;
55467;SDS011;41332;42.702;23.200;2022-12-18T11:14:05;13.77;;;8.77;;
55467;SDS011;41332;42.702;23.200;2022-12-18T11:16:45;18.75;;;8.15;;
55467;SDS011;41332;42.702;23.200;2022-12-18T11:21:50;17.83;;;9.20;;
55467;SDS011;41332;42.702;23.200;2022-12-18T11:24:20;15.98;;;9.15;;
55467;SDS011;41332;42.702;23.200;2022-12-18T11:26:57;12.05;;;6.93;;
55467;SDS011;41332;42.702;23.200;2022-12-18T11:29:35;15.15;;;7.55;;
55467;SDS011;41332;42.702;23.200;2022-12-18T11:34:51;17.33;;;8.60;;
55467;SDS011;41332;42.702;23.200;2022-12-18T11:37:23;15.65;;;7.57;;
55467;SDS011;41332;42.702;23.200;2022-12-18T11:39:50;16.80;;;7.85;;
55467;SDS011;41332;42.702;23.200;2022-12-18T11:42:54;16.67;;;8.40;;
55467;SDS011;41332;42.702;23.200;2022-12-18T11:53:02;15.30;;;9.10;;
55467;SDS011;41332;42.702;23.200;2022-12-18T11:55:37;13.55;;;8.25;;
55467;SDS011;41332;42.702;23.200;2022-12-18T12:04:12;13.45;;;7.72;;
55467;SDS011;41332;42.702;23.200;2022-12-18T12:22:56;20.90;;;10.60;;
55467;SDS011;41332;42.702;23.200;2022-12-18T12:39:27;13.45;;;7.35;;
55467;SDS011;41332;42.702;23.200;2022-12-18T12:41:57;14.93;;;7.78;;
55467;SDS011;41332;42.702;23.200;2022-12-18T12:44:51;18.02;;;9.18;;
55467;SDS011;41332;42.702;23.200;2022-12-18T12:47:53;15.95;;;8.00;;
55467;SDS011;41332;42.702;23.200;2022-12-18T12:50:15;11.90;;;6.65;;
55467;SDS011;41332;42.702;23.200;2022-12-18T12:52:51;17.17;;;8.85;;
55467;SDS011;41332;42.702;23.200;2022-12-18T12:55:19;15.27;;;7.85;;
55467;SDS011;41332;42.702;23.200;2022-12-18T13:00:36;12.68;;;6.78;;
55467;SDS011;41332;42.702;23.200;2022-12-18T13:03:23;13.57;;;7.13;;
55467;SDS011;41332;42.702;23.200;2022-12-18T13:09:17;18.15;;;8.35;;
55467;SDS011;41332;42.702;23.200;2022-12-18T13:11:46;14.63;;;7.85;;
55467;SDS011;41332;42.702;23.200;2022-12-18T13:17:17;13.10;;;7.68;;
55467;SDS011;41332;42.702;23.200;2022-12-18T13:19:52;14.50;;;8.00;;
55467;SDS011;41332;42.702;23.200;2022-12-18T13:36:27;17.05;;;8.23;;
55467;SDS011;41332;42.702;23.200;2022-12-18T13:38:46;11.70;;;7.18;;
55467;SDS011;41332;42.702;23.200;2022-12-18T13:43:44;16.17;;;8.50;;
55467;SDS011;41332;42.702;23.200;2022-12-18T13:46:19;18.80;;;10.18;;
55467;SDS011;41332;42.702;23.200;2022-12-18T13:51:22;17.45;;;8.55;;
55467;SDS011;41332;42.702;23.200;2022-12-18T13:53:53;17.80;;;8.57;;
55467;SDS011;41332;42.702;23.200;2022-12-18T13:56:23;16.73;;;8.27;;
55467;SDS011;41332;42.702;23.200;2022-12-18T14:01:59;19.90;;;8.80;;
55467;SDS011;41332;42.702;23.200;2022-12-18T14:04:32;14.40;;;7.78;;
55467;SDS011;41332;42.702;23.200;2022-12-18T14:09:42;14.25;;;7.75;;
55467;SDS011;41332;42.702;23.200;2022-12-18T14:12:18;18.65;;;9.55;;
55467;SDS011;41332;42.702;23.200;2022-12-18T14:15:06;12.50;;;7.78;;
55467;SDS011;41332;42.702;23.200;2022-12-18T14:17:36;15.93;;;7.07;;
55467;SDS011;41332;42.702;23.200;2022-12-18T14:20:04;22.20;;;11.90;;
55467;SDS011;41332;42.702;23.200;2022-12-18T14:22:39;16.27;;;8.57;;
55467;SDS011;41332;42.702;23.200;2022-12-18T14:27:42;13.45;;;7.70;;
55467;SDS011;41332;42.702;23.200;2022-12-18T14:30:31;12.27;;;6.95;;
55467;SDS011;41332;42.702;23.200;2022-12-18T14:33:00;14.98;;;7.05;;
55467;SDS011;41332;42.702;23.200;2022-12-18T14:35:31;14.15;;;8.15;;
55467;SDS011;41332;42.702;23.200;2022-12-18T14:40:44;13.38;;;7.13;;
55467;SDS011;41332;42.702;23.200;2022-12-18T14:43:13;13.05;;;7.45;;
55467;SDS011;41332;42.702;23.200;2022-12-18T14:45:44;11.93;;;7.75;;
55467;SDS011;41332;42.702;23.200;2022-12-18T14:50:36;13.38;;;7.13;;
55467;SDS011;41332;42.702;23.200;2022-12-18T14:53:02;15.30;;;8.40;;
55467;SDS011;41332;42.702;23.200;2022-12-18T14:55:28;13.88;;;8.02;;
55467;SDS011;41332;42.702;23.200;2022-12-18T14:57:54;14.45;;;7.90;;
55467;SDS011;41332;42.702;23.200;2022-12-18T15:00:21;14.93;;;8.63;;
55467;SDS011;41332;42.702;23.200;2022-12-18T15:02:53;14.88;;;8.52;;
55467;SDS011;41332;42.702;23.200;2022-12-18T15:05:27;10.43;;;6.97;;
55467;SDS011;41332;42.702;23.200;2022-12-18T15:07:55;10.80;;;7.88;;
55467;SDS011;41332;42.702;23.200;2022-12-18T15:10:23;15.85;;;8.05;;
55467;SDS011;41332;42.702;23.200;2022-12-18T15:18:09;14.30;;;7.35;;
55467;SDS011;41332;42.702;23.200;2022-12-18T15:20:44;18.00;;;10.10;;
55467;SDS011;41332;42.702;23.200;2022-12-18T15:26:11;17.40;;;8.60;;
55467;SDS011;41332;42.702;23.200;2022-12-18T15:33:41;18.88;;;7.25;;
55467;SDS011;41332;42.702;23.200;2022-12-18T15:36:11;11.35;;;6.25;;
55467;SDS011;41332;42.702;23.200;2022-12-18T15:38:38;13.80;;;7.60;;
55467;SDS011;41332;42.702;23.200;2022-12-18T15:41:04;16.10;;;8.25;;
55467;SDS011;41332;42.702;23.200;2022-12-18T15:43:30;15.35;;;8.43;;
55467;SDS011;41332;42.702;23.200;2022-12-18T15:45:58;12.30;;;7.28;;
55467;SDS011;41332;42.702;23.200;2022-12-18T15:48:24;12.65;;;6.53;;
55467;SDS011;41332;42.702;23.200;2022-12-18T15:50:50;14.15;;;7.50;;
55467;SDS011;41332;42.702;23.200;2022-12-18T15:53:18;9.40;;;5.97;;
55467;SDS011;41332;42.702;23.200;2022-12-18T15:55:44;16.65;;;8.55;;
55467;SDS011;41332;42.702;23.200;2022-12-18T15:58:28;18.77;;;9.10;;
55467;SDS011;41332;42.702;23.200;2022-12-18T16:00:53;13.68;;;8.05;;
55467;SDS011;41332;42.702;23.200;2022-12-18T16:03:22;16.92;;;9.15;;
55467;SDS011;41332;42.702;23.200;2022-12-18T16:05:48;16.55;;;9.50;;
55467;SDS011;41332;42.702;23.200;2022-12-18T16:08:14;27.58;;;11.15;;
55467;SDS011;41332;42.702;23.200;2022-12-18T16:10:39;16.80;;;9.82;;
55467;SDS011;41332;42.702;23.200;2022-12-18T16:13:05;15.32;;;8.40;;
55467;SDS011;41332;42.702;23.200;2022-12-18T16:15:34;21.90;;;10.70;;
55467;SDS011;41332;42.702;23.200;2022-12-18T16:17:59;18.70;;;11.32;;
55467;SDS011;41332;42.702;23.200;2022-12-18T16:20:25;15.57;;;9.00;;
55467;SDS011;41332;42.702;23.200;2022-12-18T16:22:50;13.70;;;8.60;;
55467;SDS011;41332;42.702;23.200;2022-12-18T16:27:43;15.40;;;7.70;;
55467;SDS011;41332;42.702;23.200;2022-12-18T16:30:12;19.45;;;8.95;;
55467;SDS011;41332;42.702;23.200;2022-12-18T16:32:39;15.05;;;8.43;;
55467;SDS011;41332;42.702;23.200;2022-12-18T16:35:04;15.10;;;7.47;;
55467;SDS011;41332;42.702;23.200;2022-12-18T16:37:30;15.25;;;7.93;;
55467;SDS011;41332;42.702;23.200;2022-12-18T16:39:55;16.75;;;7.40;;
55467;SDS011;41332;42.702;23.200;2022-12-18T16:42:20;19.85;;;8.63;;
55467;SDS011;41332;42.702;23.200;2022-12-18T16:44:46;16.65;;;8.73;;
55467;SDS011;41332;42.702;23.200;2022-12-18T16:47:13;16.77;;;7.72;;
55467;SDS011;41332;42.702;23.200;2022-12-18T16:49:39;14.30;;;7.47;;
55467;SDS011;41332;42.702;23.200;2022-12-18T16:52:05;17.50;;;8.65;;
55467;SDS011;41332;42.702;23.200;2022-12-18T16:54:32;18.13;;;9.60;;
55467;SDS011;41332;42.702;23.200;2022-12-18T16:56:59;15.98;;;6.95;;
55467;SDS011;41332;42.702;23.200;2022-12-18T16:59:25;14.02;;;7.07;;
55467;SDS011;41332;42.702;23.200;2022-12-18T17:01:54;22.80;;;8.85;;
55467;SDS011;41332;42.702;23.200;2022-12-18T17:04:21;15.02;;;6.70;;
55467;SDS011;41332;42.702;23.200;2022-12-18T17:06:49;17.50;;;9.07;;
55467;SDS011;41332;42.702;23.200;2022-12-18T17:09:18;15.68;;;8.25;;
55467;SDS011;41332;42.702;23.200;2022-12-18T17:11:49;16.50;;;8.30;;
55467;SDS011;41332;42.702;23.200;2022-12-18T17:14:16;16.63;;;7.78;;
55467;SDS011;41332;42.702;23.200;2022-12-18T17:16:43;16.73;;;7.80;;